createdAt,value
2019-04-16T00:03:02.793Z,3.77
2019-04-16T00:08:26.571Z,3.57
2019-04-16T00:13:19.495Z,3.42
2019-04-16T00:18:25.315Z,3.32
2019-04-16T00:23:47.876Z,3.30
2019-04-16T00:28:53.596Z,3.31
2019-04-16T00:33:59.529Z,3.33
2019-04-16T00:39:06.824Z,3.19
2019-04-16T00:44:13.442Z,3.03
2019-04-16T00:49:19.276Z,3.13
2019-04-16T00:54:25.301Z,3.08
2019-04-16T00:59:31.158Z,3.03
2019-04-16T01:04:36.803Z,3.11
2019-04-16T01:09:42.702Z,2.88
2019-04-16T01:14:48.348Z,2.92
2019-04-16T01:19:54.150Z,2.75
2019-04-16T01:25:00.008Z,2.78
2019-04-16T01:30:09.531Z,2.63
2019-04-16T01:35:33.008Z,2.43
2019-04-16T01:40:55.674Z,2.35
2019-04-16T01:46:02.445Z,2.48
2019-04-16T01:51:08.488Z,2.53
2019-04-16T01:56:14.518Z,2.34
2019-04-16T02:01:20.396Z,2.32
2019-04-16T02:06:26.657Z,2.35
2019-04-16T02:11:32.830Z,2.30
2019-04-16T02:16:38.722Z,2.08
2019-04-16T02:21:44.492Z,2.04
2019-04-16T02:26:54.601Z,2.12
2019-04-16T02:31:58.934Z,2.05
2019-04-16T02:37:04.602Z,1.96
2019-04-16T02:42:10.345Z,1.99
2019-04-16T02:47:16.199Z,1.99
2019-04-16T02:52:32.619Z,2.05
2019-04-16T02:57:45.964Z,1.91
2019-04-16T03:02:54.007Z,2.03
2019-04-16T03:08:04.470Z,1.93
2019-04-16T03:13:08.903Z,1.88
2019-04-16T03:18:16.321Z,1.86
2019-04-16T03:23:22.122Z,1.63
2019-04-16T03:28:28.164Z,1.67
2019-04-16T03:33:34.086Z,1.62
2019-04-16T03:38:42.001Z,1.34
2019-04-16T03:43:47.223Z,1.43
2019-04-16T03:48:56.157Z,1.51
2019-04-16T03:54:00.484Z,1.30
2019-04-16T03:59:10.740Z,1.34
2019-04-16T04:04:13.852Z,1.46
2019-04-16T04:09:22.210Z,1.37
2019-04-16T04:14:27.248Z,1.53
2019-04-16T04:19:33.011Z,1.71
2019-04-16T04:24:38.828Z,1.71
2019-04-16T04:29:46.280Z,1.61
2019-04-16T04:34:53.452Z,1.67
2019-04-16T04:39:59.362Z,1.38
2019-04-16T04:45:08.942Z,1.72
2019-04-16T04:50:14.396Z,1.72
2019-04-16T04:55:20.160Z,1.91
2019-04-16T05:00:25.854Z,1.97
2019-04-16T05:05:36.717Z,2.27
2019-04-16T05:10:43.273Z,2.31
2019-04-16T05:15:49.881Z,2.30
2019-04-16T05:20:55.654Z,2.53
2019-04-16T05:26:04.459Z,2.55
2019-04-16T05:31:08.970Z,2.75
2019-04-16T05:36:15.424Z,2.30
2019-04-16T05:41:22.769Z,2.62
2019-04-16T05:46:28.691Z,3.00
2019-04-16T05:51:34.558Z,2.98
2019-04-16T05:56:41.969Z,3.36
2019-04-16T06:01:57.337Z,3.79
2019-04-16T06:07:07.330Z,3.87
2019-04-16T06:12:10.234Z,4.01
2019-04-16T06:17:25.425Z,4.24
2019-04-16T06:22:38.765Z,4.03
2019-04-16T06:28:03.233Z,4.10
2019-04-16T06:33:10.534Z,4.49
2019-04-16T06:38:27.931Z,4.82
2019-04-16T06:43:35.432Z,4.71
2019-04-16T06:48:51.751Z,4.95
2019-04-16T06:53:59.697Z,5.45
2019-04-16T06:59:07.212Z,5.92
2019-04-16T07:04:15.074Z,5.63
2019-04-16T07:09:25.191Z,6.14
2019-04-16T07:14:30.624Z,5.86
2019-04-16T07:19:36.354Z,6.12
2019-04-16T07:24:42.288Z,6.86
2019-04-16T07:29:52.983Z,7.28
2019-04-16T07:35:01.819Z,7.16
2019-04-16T07:40:10.540Z,7.44
2019-04-16T07:45:23.925Z,7.80
2019-04-16T07:50:46.551Z,7.88
2019-04-16T07:55:54.045Z,8.11
2019-04-16T08:01:00.355Z,8.06
2019-04-16T08:06:06.027Z,8.72
2019-04-16T08:11:11.877Z,8.70
2019-04-16T08:16:17.744Z,8.96
2019-04-16T08:21:23.618Z,8.96
2019-04-16T08:26:29.402Z,9.78
2019-04-16T08:31:36.914Z,10.11
2019-04-16T08:36:42.869Z,10.14
2019-04-16T08:41:52.087Z,10.56
2019-04-16T08:46:58.633Z,10.60
2019-04-16T08:52:03.959Z,10.94
2019-04-16T08:57:09.934Z,10.95
2019-04-16T09:02:15.704Z,11.10
2019-04-16T09:07:40.004Z,11.21
2019-04-16T09:12:55.959Z,11.86
2019-04-16T09:17:54.992Z,11.78
2019-04-16T09:23:01.613Z,12.40
2019-04-16T09:28:24.429Z,12.58
2019-04-16T09:33:33.487Z,12.71
2019-04-16T09:38:46.282Z,12.53
2019-04-16T09:44:02.099Z,12.63
2019-04-16T09:49:09.463Z,12.67
2019-04-16T09:54:15.331Z,13.11
2019-04-16T09:59:31.583Z,13.39
2019-04-16T10:04:37.504Z,13.30
2019-04-16T10:09:43.188Z,14.25
2019-04-16T10:14:48.838Z,13.61
2019-04-16T10:19:54.479Z,13.62
2019-04-16T10:25:01.780Z,13.58
2019-04-16T10:30:09.681Z,13.68
2019-04-16T10:35:15.421Z,13.60
2019-04-16T10:40:29.085Z,13.64
2019-04-16T10:45:39.659Z,13.68
2019-04-16T10:50:53.405Z,14.17
2019-04-16T10:56:03.815Z,14.09
2019-04-16T11:01:11.219Z,14.52
2019-04-16T11:06:21.274Z,14.28
2019-04-16T11:11:27.071Z,14.60
2019-04-16T11:16:35.880Z,14.56
2019-04-16T11:21:40.184Z,14.90
2019-04-16T11:26:46.919Z,15.01
2019-04-16T11:31:52.627Z,15.09
2019-04-16T11:36:58.574Z,14.82
2019-04-16T11:42:04.616Z,14.94
2019-04-16T11:47:10.292Z,14.59
2019-04-16T11:52:16.310Z,15.04
2019-04-16T11:57:22.125Z,15.02
2019-04-16T12:02:33.386Z,15.69
2019-04-16T12:07:47.134Z,15.75
2019-04-16T12:12:54.647Z,15.98
2019-04-16T12:18:11.430Z,15.92
2019-04-16T12:23:18.831Z,15.46
2019-04-16T12:28:26.169Z,15.72
2019-04-16T12:33:33.655Z,15.71
2019-04-16T12:38:44.128Z,15.52
2019-04-16T12:43:57.909Z,15.67
2019-04-16T12:49:11.435Z,16.16
2019-04-16T12:54:30.814Z,16.57
2019-04-16T12:59:40.887Z,16.36
2019-04-16T13:05:03.307Z,16.09
2019-04-16T13:10:10.983Z,16.52
2019-04-16T13:15:35.171Z,17.00
2019-04-16T13:21:03.983Z,16.37
2019-04-16T13:26:20.078Z,16.51
2019-04-16T13:31:25.980Z,17.02
2019-04-16T13:36:31.847Z,16.93
2019-04-16T13:41:37.706Z,16.81
2019-04-16T13:46:43.692Z,16.92
2019-04-16T13:51:49.966Z,16.77
2019-04-16T13:56:57.767Z,16.23
2019-04-16T14:02:05.111Z,16.50
2019-04-16T14:07:11.864Z,16.63
2019-04-16T14:12:28.015Z,16.52
2019-04-16T14:17:34.815Z,16.89
2019-04-16T14:22:38.729Z,17.13
2019-04-16T14:27:44.390Z,17.32
2019-04-16T14:32:50.014Z,17.10
2019-04-16T14:37:55.681Z,17.19
2019-04-16T14:43:01.461Z,17.05
2019-04-16T14:48:08.872Z,16.70
2019-04-16T14:53:17.340Z,17.03
2019-04-16T14:58:40.996Z,17.28
2019-04-16T15:03:51.381Z,17.27
2019-04-16T15:09:01.986Z,17.28
2019-04-16T15:14:14.576Z,17.78
2019-04-16T15:19:38.172Z,18.09
2019-04-16T15:24:45.427Z,17.96
2019-04-16T15:29:58.651Z,17.14
2019-04-16T15:35:05.652Z,18.09
2019-04-16T15:40:15.116Z,18.13
2019-04-16T15:45:35.586Z,18.10
2019-04-16T15:50:42.963Z,18.17
2019-04-16T15:55:50.300Z,18.17
2019-04-16T16:01:00.344Z,18.65
2019-04-16T16:06:16.768Z,18.33
2019-04-16T16:11:26.064Z,18.15
2019-04-16T16:16:41.434Z,18.33
2019-04-16T16:21:39.317Z,18.53
2019-04-16T16:26:45.184Z,21.95
2019-04-16T16:31:51.057Z,20.35
2019-04-16T16:36:56.830Z,21.50
2019-04-16T16:42:02.805Z,20.78
2019-04-16T16:47:10.274Z,19.63
2019-04-16T16:52:34.403Z,17.31
2019-04-16T16:57:41.949Z,16.52
2019-04-16T17:03:01.714Z,16.38
2019-04-16T17:08:07.580Z,16.00
2019-04-16T17:13:21.046Z,15.91
2019-04-16T17:18:24.847Z,15.59
2019-04-16T17:23:30.733Z,15.57
2019-04-16T17:28:36.605Z,15.22
2019-04-16T17:33:42.412Z,15.03
2019-04-16T17:38:48.344Z,14.85
2019-04-16T17:44:10.903Z,14.62
2019-04-16T17:49:27.635Z,14.41
2019-04-16T17:54:38.019Z,14.31
2019-04-16T17:59:51.465Z,14.15
2019-04-16T18:05:00.601Z,13.88
2019-04-16T18:10:12.838Z,13.60
2019-04-16T18:15:35.308Z,13.41
2019-04-16T18:20:56.817Z,13.19
2019-04-16T18:26:08.655Z,13.05
2019-04-16T18:31:18.904Z,12.83
2019-04-16T18:36:35.323Z,12.71
2019-04-16T18:41:49.255Z,12.53
2019-04-16T18:47:13.076Z,12.40
2019-04-16T18:52:19.422Z,12.28
2019-04-16T18:57:27.259Z,12.13
2019-04-16T19:02:33.863Z,12.05
2019-04-16T19:07:39.643Z,11.87
2019-04-16T19:12:45.437Z,11.79
2019-04-16T19:17:51.538Z,11.68
2019-04-16T19:22:57.352Z,11.55
2019-04-16T19:28:06.621Z,11.55
2019-04-16T19:33:10.840Z,11.35
2019-04-16T19:38:16.702Z,11.23
2019-04-16T19:43:22.590Z,11.09
2019-04-16T19:48:35.670Z,10.88
2019-04-16T19:53:36.387Z,10.82
2019-04-16T19:58:44.247Z,10.77
2019-04-16T20:03:53.378Z,10.82
2019-04-16T20:08:59.505Z,10.70
2019-04-16T20:14:06.056Z,10.64
2019-04-16T20:19:11.968Z,10.45
2019-04-16T20:24:17.859Z,10.35
2019-04-16T20:29:23.818Z,10.33
2019-04-16T20:34:29.679Z,10.31
2019-04-16T20:39:36.586Z,10.19
2019-04-16T20:44:42.459Z,10.25
2019-04-16T20:49:49.196Z,10.23
2019-04-16T20:54:56.000Z,10.09
2019-04-16T21:00:04.190Z,10.15
2019-04-16T21:05:22.115Z,10.11
2019-04-16T21:10:20.652Z,9.94
2019-04-16T21:15:27.391Z,9.83
2019-04-16T21:20:33.983Z,9.70
2019-04-16T21:25:42.861Z,9.61
2019-04-16T21:30:49.003Z,9.33
2019-04-16T21:35:56.576Z,9.24
2019-04-16T21:41:02.473Z,9.07
2019-04-16T21:46:08.132Z,8.99
2019-04-16T21:51:19.057Z,8.85
2019-04-16T21:56:21.707Z,8.63
2019-04-16T22:01:29.144Z,8.63
2019-04-16T22:06:34.903Z,8.63
2019-04-16T22:11:43.498Z,8.61
2019-04-16T22:16:47.805Z,8.68
2019-04-16T22:21:53.415Z,8.41
2019-04-16T22:26:58.957Z,8.47
2019-04-16T22:32:04.569Z,8.29
2019-04-16T22:37:10.345Z,8.09
2019-04-16T22:42:32.784Z,8.09
2019-04-16T22:47:39.936Z,7.90
2019-04-16T22:52:46.196Z,7.84
2019-04-16T22:57:51.687Z,7.74
2019-04-16T23:02:57.233Z,7.71
2019-04-16T23:08:02.873Z,7.67
2019-04-16T23:13:08.494Z,7.60
2019-04-16T23:18:17.278Z,7.54
2019-04-16T23:23:21.523Z,7.48
2019-04-16T23:28:28.715Z,7.19
2019-04-16T23:33:34.152Z,7.17
2019-04-16T23:38:39.766Z,7.06
2019-04-16T23:43:50.570Z,7.21
2019-04-16T23:49:01.185Z,7.15
2019-04-16T23:54:12.773Z,6.93
2019-04-16T23:59:19.881Z,6.99
